Time;durP1;ratioP1;P1;durP2;ratioP2;P2;SDS_P1;SDS_P2;PMS_P1;PMS_P2;Temp;Humidity;BMP_temperature;BMP_pressure;BME280_temperature;BME280_humidity;BME280_pressure;Samples;Min_cycle;Max_cycle;Signal;HPM_P1;HPM_P2
2022/08/02 00:00:08;;;;;;;;;8.00;7.67;;;;;23.54;50.04;101557.16;6215846;22;46015;-88
2022/08/02 00:02:36;;;;;;;;;6.33;5.67;;;;;23.55;49.70;101556.25;6214516;22;47468;-87
2022/08/02 00:05:02;;;;;;;;;7.00;5.67;;;;;23.47;50.36;101546.75;6213907;22;45269;-85
2022/08/02 00:07:27;;;;;;;;;5.00;5.00;;;;;23.42;50.24;101552.34;6215480;22;45364;-87
2022/08/02 00:09:52;;;;;;;;;7.00;5.00;;;;;23.41;50.07;101547.91;6214673;22;45932;-82
2022/08/02 00:12:18;;;;;;;;;5.00;4.00;;;;;23.39;50.16;101546.22;6213254;22;45504;-80
2022/08/02 00:14:43;;;;;;;;;7.50;7.50;;;;;23.31;50.47;101535.84;6215014;22;45208;-82
2022/08/02 00:17:08;;;;;;;;;6.67;6.67;;;;;23.29;50.88;101533.22;6215159;22;45890;-82
2022/08/02 00:19:34;;;;;;;;;3.00;3.00;;;;;23.35;50.89;101548.19;6215417;22;45541;-81
2022/08/02 00:21:59;;;;;;;;;5.33;5.33;;;;;23.27;50.79;101536.91;6213522;22;46976;-82
2022/08/02 00:24:25;;;;;;;;;4.33;4.00;;;;;23.23;50.77;101537.97;6238867;22;45355;-82
2022/08/02 00:26:50;;;;;;;;;5.00;4.00;;;;;23.25;51.00;101542.34;6217194;22;45274;-82
2022/08/02 00:29:16;;;;;;;;;5.00;4.00;;;;;23.18;50.67;101534.63;6217326;22;45381;-82
2022/08/02 00:31:41;;;;;;;;;4.67;4.67;;;;;23.24;51.64;101554.03;6215333;22;46898;-82
2022/08/02 00:34:14;;;;;;;;;4.25;4.25;;;;;23.22;51.36;101549.66;6215419;22;45350;-83
2022/08/02 00:37:03;;;;;;;;;5.50;4.50;;;;;23.14;51.22;101536.56;6215303;22;45191;-82
2022/08/02 00:40:01;;;;;;;;;;;;;;;;;;;;;
2022/08/02 00:43:03;;;;;;;;;;;;;;;;;;;;;
2022/08/02 00:45:59;;;;;;;;;6.33;4.33;;;;;23.05;51.91;101526.22;6214682;22;72854;-82
2022/08/02 00:48:59;;;;;;;;;;;;;;;;;;;;;
2022/08/02 00:51:39;;;;;;;;;;;;;;;;;;;;;
2022/08/02 00:54:20;;;;;;;;;;;;;;;;;;;;;
2022/08/02 00:56:53;;;;;;;;;3.67;3.67;;;;;22.94;51.83;101534.72;6246548;22;72738;-82
2022/08/02 00:59:19;;;;;;;;;5.33;5.33;;;;;23.00;51.80;101547.91;6220229;22;45209;-83
2022/08/02 01:01:54;;;;;;;;;4.00;4.00;;;;;22.89;51.82;101540.28;6247693;22;45143;-83
2022/08/02 01:04:33;;;;;;;;;;;;;;;;;;;;;
2022/08/02 01:07:02;;;;;;;;;7.33;5.67;;;;;22.88;52.08;101543.00;6246183;22;72932;-83
2022/08/02 01:09:28;;;;;;;;;7.33;5.67;;;;;22.81;52.13;101544.22;6219647;22;45225;-83
2022/08/02 01:11:54;;;;;;;;;5.33;4.33;;;;;22.76;52.10;101539.03;6247545;22;45180;-82
2022/08/02 01:14:23;;;;;;;;;4.00;4.00;;;;;22.75;52.04;101544.47;6220082;22;47077;-82
2022/08/02 01:17:00;;;;;;;;;6.00;5.33;;;;;22.69;52.31;101537.53;6219898;22;45316;-82
2022/08/02 01:19:50;;;;;;;;;4.00;4.00;;;;;22.76;52.41;101546.22;6247752;22;45392;-82
2022/08/02 01:22:31;;;;;;;;;8.00;4.50;;;;;22.71;52.37;101557.16;6219820;22;45497;-82
2022/08/02 01:25:28;;;;;;;;;;;;;;;;;;;;;
2022/08/02 01:31:28;;;;;;;;;3.00;3.00;;;;;22.55;52.72;101554.22;6242271;22;45350;-83
2022/08/02 01:34:05;;;;;;;;;3.67;3.67;;;;;22.53;52.79;101566.81;6247173;22;45490;-82
2022/08/02 01:36:38;;;;;;;;;6.67;5.00;;;;;22.42;52.78;101545.78;6218667;22;45270;-82
2022/08/02 01:39:10;;;;;;;;;3.00;2.00;;;;;22.38;52.72;101548.69;6219483;22;45307;-82
2022/08/02 01:41:44;;;;;;;;;5.33;5.33;;;;;22.35;52.97;101549.69;6219375;22;45370;-82
2022/08/02 01:44:41;;;;;;;;;3.00;3.00;;;;;22.38;53.02;101562.97;6219637;22;45417;-82
2022/08/02 01:47:14;;;;;;;;;4.33;3.33;;;;;22.24;52.98;101549.25;6242583;22;46455;-83
2022/08/02 01:49:42;;;;;;;;;4.00;4.00;;;;;22.21;53.05;101542.19;6219641;22;45410;-83
2022/08/02 01:52:35;;;;;;;;;;;;;;;;;;;;;
2022/08/02 01:55:13;;;;;;;;;4.00;4.00;;;;;22.16;53.35;101543.25;6246221;22;71382;-82
2022/08/02 01:58:19;;;;;;;;;;;;;;;;;;;;;
2022/08/02 02:03:50;;;;;;;;;3.33;3.00;;;;;22.13;53.63;101554.09;6187508;22;45474;-83
2022/08/02 05:41:47;;;;;;;;;4.00;4.00;;;;;20.70;56.81;101527.94;6124412;23;45182;-82
2022/08/02 05:44:37;;;;;;;;;5.25;4.75;;;;;20.73;56.83;101526.09;6126218;23;46167;-83
2022/08/02 05:47:10;;;;;;;;;4.25;4.25;;;;;20.75;56.18;101529.59;6135297;23;45220;-83
2022/08/02 05:49:46;;;;;;;;;3.75;3.75;;;;;20.70;56.80;101529.75;6126768;23;45308;-83
2022/08/02 05:52:50;;;;;;;;;6.00;4.75;;;;;20.76;56.65;101548.28;6149002;23;45633;-83
2022/08/02 05:56:21;;;;;;;;;;;;;;;;;;;;;
2022/08/02 05:58:54;;;;;;;;;6.25;5.00;;;;;20.74;56.93;101550.13;6013382;23;73063;-83
2022/08/02 06:01:31;;;;;;;;;8.00;6.00;;;;;20.64;56.83;101524.63;6126788;23;45322;-82
2022/08/02 06:03:59;;;;;;;;;7.33;7.33;;;;;20.68;56.89;101521.75;6173598;23;45882;-82
2022/08/02 06:06:25;;;;;;;;;6.75;5.50;;;;;20.75;56.92;101532.28;6125837;23;45543;-81
2022/08/02 06:09:32;;;;;;;;;5.50;5.50;;;;;20.66;56.84;101512.94;6173707;23;45613;-82
2022/08/02 06:12:02;;;;;;;;;6.50;5.25;;;;;20.78;56.80;101521.47;6124246;23;45290;-82
2022/08/02 06:14:32;;;;;;;;;5.75;5.75;;;;;20.84;57.07;101531.97;6174214;23;45383;-82
2022/08/02 06:17:02;;;;;;;;;5.25;5.25;;;;;20.84;57.08;101524.81;6173810;23;46291;-81
2022/08/02 06:19:27;;;;;;;;;3.33;3.33;;;;;20.96;56.64;101541.41;6174077;23;45821;-82
2022/08/02 06:21:54;;;;;;;;;5.00;5.00;;;;;20.99;56.75;101538.59;6173968;23;45371;-81
2022/08/02 06:24:20;;;;;;;;;7.00;7.00;;;;;20.96;56.46;101528.00;6174886;23;45428;-81
2022/08/02 06:26:51;;;;;;;;;6.00;5.50;;;;;20.99;56.26;101533.25;6127412;23;45314;-81
2022/08/02 06:29:18;;;;;;;;;5.50;5.50;;;;;21.02;56.41;101530.47;6175624;23;45398;-81
2022/08/02 06:31:47;;;;;;;;;5.00;5.00;;;;;21.12;56.51;101550.66;6127685;23;45384;-81
2022/08/02 06:34:12;;;;;;;;;4.25;4.25;;;;;21.12;56.09;101543.47;6150341;23;45556;-80
2022/08/02 06:37:00;;;;;;;;;7.25;7.00;;;;;21.23;56.06;101553.81;6127170;23;46433;-82
2022/08/02 06:39:45;;;;;;;;;5.00;4.00;;;;;21.17;56.15;101537.06;6127542;23;45160;-82
2022/08/02 06:42:30;;;;;;;;;4.25;4.25;;;;;21.24;55.85;101531.44;6149351;23;45249;-82
2022/08/02 06:44:58;;;;;;;;;5.75;4.75;;;;;21.35;55.79;101548.00;6175357;23;45636;-82
2022/08/02 06:47:26;;;;;;;;;5.25;5.00;;;;;21.35;55.62;101539.97;6127157;23;45549;-82
2022/08/02 06:49:57;;;;;;;;;4.00;4.00;;;;;21.40;55.55;101547.88;6100715;23;45194;-82
2022/08/02 06:52:24;;;;;;;;;5.00;4.00;;;;;21.42;55.58;101542.47;6127472;23;45411;-80
2022/08/02 06:54:50;;;;;;;;;5.00;4.00;;;;;21.44;55.25;101548.63;6127795;23;45377;-80
2022/08/02 06:57:15;;;;;;;;;4.00;4.00;;;;;21.56;54.85;101566.97;6127324;23;46323;-82
2022/08/02 06:59:41;;;;;;;;;6.25;6.25;;;;;21.61;54.88;101567.66;6150020;23;45423;-81
2022/08/02 07:02:08;;;;;;;;;4.00;4.00;;;;;21.65;54.95;101569.31;6150759;23;45477;-80
2022/08/02 07:04:33;;;;;;;;;3.67;3.67;;;;;21.62;54.83;101563.19;6150524;23;45724;-81
2022/08/02 07:07:03;;;;;;;;;4.50;4.25;;;;;21.59;54.68;101556.13;6126964;23;46292;-83
2022/08/02 07:09:29;;;;;;;;;5.00;5.00;;;;;21.70;54.69;101569.13;6126820;23;45426;-81
2022/08/02 07:11:54;;;;;;;;;7.00;7.00;;;;;21.77;54.91;101567.97;6174703;23;45361;-85
2022/08/02 07:14:20;;;;;;;;;5.00;5.00;;;;;21.74;54.60;101555.56;6175332;23;45929;-84
2022/08/02 07:16:45;;;;;;;;;7.67;5.67;;;;;21.82;54.30;101559.78;6127308;23;46317;-79
2022/08/02 07:19:11;;;;;;;;;5.33;5.00;;;;;21.84;54.13;101564.16;6127329;23;45359;-79
2022/08/02 07:21:36;;;;;;;;;4.00;4.00;;;;;21.83;53.91;101561.50;6174891;23;45321;-79
2022/08/02 07:24:02;;;;;;;;;4.33;4.33;;;;;21.90;54.00;101571.09;6126991;23;45183;-79
2022/08/02 07:26:27;;;;;;;;;3.67;3.33;;;;;21.89;53.60;101566.63;6125002;23;47719;-81
2022/08/02 07:28:53;;;;;;;;;4.00;3.33;;;;;21.91;53.76;101565.66;6127155;23;45207;-80
2022/08/02 07:31:19;;;;;;;;;4.00;4.00;;;;;22.00;53.56;101570.69;6175408;23;45199;-81
2022/08/02 07:33:44;;;;;;;;;3.33;3.33;;;;;22.03;53.43;101567.00;6127024;23;45171;-81
2022/08/02 07:36:10;;;;;;;;;4.00;4.00;;;;;22.05;53.04;101565.09;6127136;23;45213;-79
2022/08/02 07:38:35;;;;;;;;;4.00;3.00;;;;;22.10;53.04;101564.94;6126925;23;45142;-80
2022/08/02 07:41:01;;;;;;;;;4.67;2.67;;;;;22.19;52.87;101576.22;6126978;23;45183;-82
2022/08/02 07:43:26;;;;;;;;;3.33;3.33;;;;;22.23;52.65;101566.25;6127048;23;45353;-77
2022/08/02 07:45:51;;;;;;;;;4.33;3.67;;;;;22.29;52.75;101566.00;6127526;23;46440;-80
2022/08/02 07:48:17;;;;;;;;;4.33;4.00;;;;;22.38;52.32;101573.69;6150026;23;45369;-80
2022/08/02 07:50:42;;;;;;;;;4.00;3.67;;;;;22.48;52.58;101576.91;6127373;23;45341;-80
2022/08/02 07:53:07;;;;;;;;;3.00;3.00;;;;;22.49;51.89;101569.72;6124187;23;45725;-80
2022/08/02 07:55:33;;;;;;;;;3.00;3.00;;;;;22.55;51.74;101575.69;6150197;23;47126;-80
2022/08/02 07:57:59;;;;;;;;;4.00;4.00;;;;;22.60;51.87;101579.06;6126957;23;45341;-80
2022/08/02 08:00:24;;;;;;;;;3.33;3.33;;;;;22.61;51.60;101564.72;6127353;23;45561;-84
2022/08/02 08:02:49;;;;;;;;;6.67;4.33;;;;;22.73;51.47;101575.91;6126920;23;45331;-81
2022/08/02 08:05:15;;;;;;;;;4.00;4.00;;;;;22.75;51.50;101572.22;6149860;23;48411;-80
2022/08/02 08:07:41;;;;;;;;;5.00;5.00;;;;;22.82;51.31;101572.81;6174139;23;45281;-81
2022/08/02 08:10:07;;;;;;;;;4.33;2.33;;;;;22.88;51.14;101565.41;6127424;23;45382;-80
2022/08/02 08:12:33;;;;;;;;;3.67;2.67;;;;;22.93;51.13;101565.19;6126785;23;45225;-81
2022/08/02 08:14:58;;;;;;;;;4.67;4.67;;;;;23.01;50.91;101571.13;6126883;23;45939;-81
2022/08/02 08:17:24;;;;;;;;;3.67;2.33;;;;;23.09;50.49;101563.66;6174916;23;45258;-81
2022/08/02 08:19:49;;;;;;;;;4.00;3.00;;;;;23.17;50.43;101563.28;6125189;23;45227;-82
2022/08/02 08:22:17;;;;;;;;;4.00;4.00;;;;;23.29;50.58;101561.91;6148287;23;45546;-82
2022/08/02 08:24:43;;;;;;;;;3.00;1.67;;;;;23.36;49.85;101549.06;6149490;23;47381;-81
2022/08/02 08:27:13;;;;;;;;;3.67;3.67;;;;;23.47;50.11;101549.44;6149633;23;45299;-80
2022/08/02 08:29:40;;;;;;;;;3.00;3.00;;;;;23.59;49.68;101553.41;6126904;23;45091;-81
2022/08/02 08:32:05;;;;;;;;;3.33;3.33;;;;;23.70;49.53;101551.97;6174646;23;45440;-81
2022/08/02 08:34:30;;;;;;;;;3.67;3.67;;;;;23.80;49.73;101547.09;6126967;23;45239;-79
2022/08/02 08:36:56;;;;;;;;;5.50;5.50;;;;;23.97;49.81;101548.97;6149181;23;45131;-81
2022/08/02 08:39:21;;;;;;;;;3.00;3.00;;;;;24.11;48.84;101551.91;6126992;23;45233;-81
2022/08/02 08:41:47;;;;;;;;;4.00;4.00;;;;;24.23;48.76;101545.06;6126150;23;45385;-84
2022/08/02 08:44:12;;;;;;;;;2.67;2.67;;;;;24.34;48.45;101553.47;6126566;23;45365;-81
2022/08/02 08:46:41;;;;;;;;;2.33;2.33;;;;;24.36;48.31;101543.53;6126027;23;45365;-83
2022/08/02 08:49:21;;;;;;;;;2.00;2.00;;;;;24.47;47.65;101552.94;6174984;23;45412;-82
2022/08/02 08:51:54;;;;;;;;;4.00;2.00;;;;;24.54;48.02;101551.66;6174372;23;45274;-83
2022/08/02 08:54:26;;;;;;;;;3.67;3.67;;;;;24.52;47.64;101538.28;6149754;23;46343;-81
2022/08/02 08:56:53;;;;;;;;;2.33;2.33;;;;;24.57;47.77;101544.31;6145456;23;45155;-88
2022/08/02 08:59:19;;;;;;;;;3.33;3.33;;;;;24.62;47.36;101541.41;6148230;23;45325;-86
2022/08/02 09:01:45;;;;;;;;;4.67;4.00;;;;;24.71;47.75;101553.53;6147508;23;45469;-85
2022/08/02 09:04:11;;;;;;;;;4.00;3.33;;;;;24.76;46.99;101551.50;6148156;23;47318;-86
2022/08/02 09:06:38;;;;;;;;;3.00;3.00;;;;;24.74;47.36;101532.69;6147488;23;45233;-84
2022/08/02 09:09:04;;;;;;;;;2.00;2.00;;;;;24.81;46.79;101534.13;6146944;23;45333;-84
2022/08/02 09:11:29;;;;;;;;;3.33;3.33;;;;;24.86;46.58;101539.31;6147699;23;45440;-83
2022/08/02 09:13:57;;;;;;;;;4.00;4.00;;;;;24.87;46.43;101538.34;6172819;23;46884;-84
2022/08/02 09:16:34;;;;;;;;;3.33;3.33;;;;;24.96;46.59;101532.47;6173384;23;45533;-83
2022/08/02 09:19:14;;;;;;;;;2.67;2.33;;;;;25.10;46.39;101537.16;6147317;23;45348;-83
2022/08/02 09:21:40;;;;;;;;;3.33;3.33;;;;;25.19;46.42;101530.44;6172746;23;45400;-82
2022/08/02 09:24:15;;;;;;;;;2.00;2.00;;;;;25.23;46.29;101524.84;6147767;23;47232;-83
2022/08/02 09:26:41;;;;;;;;;6.00;5.00;;;;;25.36;46.23;101530.41;6146921;23;45381;-83
2022/08/02 09:29:07;;;;;;;;;2.67;2.67;;;;;25.41;46.19;101532.88;6172944;23;45207;-85
2022/08/02 09:31:33;;;;;;;;;3.00;3.00;;;;;25.51;46.04;101520.66;6147762;23;45497;-83
2022/08/02 09:33:59;;;;;;;;;4.00;4.00;;;;;25.59;45.80;101515.72;6173035;23;46910;-83
2022/08/02 09:36:36;;;;;;;;;5.00;4.67;;;;;25.63;45.42;101517.28;6124966;23;45212;-82
2022/08/02 09:39:04;;;;;;;;;4.00;3.00;;;;;25.70;45.50;101516.00;6170833;23;45361;-84
2022/08/02 09:41:34;;;;;;;;;6.00;4.67;;;;;25.77;45.25;101518.34;6120540;23;45671;-84
2022/08/02 09:44:02;;;;;;;;;4.67;4.67;;;;;25.82;45.15;101509.06;6172383;23;47276;-83
2022/08/02 09:46:32;;;;;;;;;3.00;3.00;;;;;25.92;45.00;101526.50;6172748;23;45663;-84
2022/08/02 09:48:59;;;;;;;;;4.00;4.00;;;;;25.95;45.03;101515.56;6123774;23;45399;-83
2022/08/02 09:51:39;;;;;;;;;4.67;4.00;;;;;25.99;44.82;101516.25;6146300;23;45277;-84
2022/08/02 09:54:10;;;;;;;;;3.00;3.00;;;;;26.05;44.88;101515.88;6147634;23;46748;-83
2022/08/02 09:56:49;;;;;;;;;6.67;4.00;;;;;26.14;44.57;101517.19;6172408;23;45302;-84
2022/08/02 09:59:16;;;;;;;;;4.00;4.00;;;;;26.17;44.30;101504.41;6173480;23;45309;-84
2022/08/02 10:01:44;;;;;;;;;4.33;4.33;;;;;26.26;44.71;101507.53;6147918;23;45938;-82
2022/08/02 10:04:11;;;;;;;;;35.75;33.00;;;;;26.29;44.36;101499.25;6124566;23;47526;-80
2022/08/02 10:06:38;;;;;;;;;5.25;5.00;;;;;26.40;44.72;101492.25;6149806;23;45452;-79
2022/08/02 10:09:05;;;;;;;;;18.00;16.50;;;;;26.54;44.48;101499.63;6127523;23;45378;-79
2022/08/02 10:11:33;;;;;;;;;10.25;8.50;;;;;26.68;43.91;101512.31;6126562;23;45255;-82
2022/08/02 10:14:01;;;;;;;;;7.75;6.75;;;;;26.77;44.23;101497.38;6124907;23;45316;-80
2022/08/02 10:16:26;;;;;;;;;7.00;6.00;;;;;26.94;43.96;101496.34;6150033;23;45204;-80
2022/08/02 10:18:53;;;;;;;;;5.67;4.00;;;;;27.08;43.08;101496.41;6127588;23;45320;-79
2022/08/02 10:21:29;;;;;;;;;5.00;5.00;;;;;27.25;42.88;101498.09;6174381;23;45502;-79
2022/08/02 10:24:07;;;;;;;;;2.67;2.67;;;;;27.40;41.79;101497.13;6150079;23;47303;-79
2022/08/02 10:26:34;;;;;;;;;2.67;2.67;;;;;27.50;41.68;101497.41;6174206;23;45190;-81
2022/08/02 10:29:00;;;;;;;;;2.67;2.67;;;;;27.60;40.92;101498.56;6150138;23;45336;-80
2022/08/02 10:31:32;;;;;;;;;3.00;3.00;;;;;27.75;41.04;101499.44;6175178;23;45628;-79
2022/08/02 10:34:00;;;;;;;;;4.33;3.33;;;;;27.87;40.54;101495.09;6127389;23;45966;-80
2022/08/02 10:36:30;;;;;;;;;6.00;5.67;;;;;28.01;40.52;101499.63;6149608;23;46154;-79
2022/08/02 10:38:57;;;;;;;;;4.00;4.00;;;;;28.19;40.85;101492.13;6127220;23;45284;-82
2022/08/02 10:41:41;;;;;;;;;4.00;3.67;;;;;28.40;39.79;101496.13;6149263;23;45324;-83
2022/08/02 10:44:08;;;;;;;;;5.00;3.33;;;;;28.49;38.92;101494.66;6174714;23;47196;-84
2022/08/02 10:46:36;;;;;;;;;2.00;2.00;;;;;28.62;38.91;101489.28;6150499;23;45361;-84
2022/08/02 10:49:09;;;;;;;;;3.67;3.67;;;;;28.71;38.63;101485.94;6127429;23;45372;-81
2022/08/02 10:52:05;;;;;;;;;3.67;3.67;;;;;28.86;37.72;101486.75;6174719;23;45151;-81
2022/08/02 10:54:32;;;;;;;;;4.00;2.67;;;;;29.00;37.87;101501.09;6127283;23;46167;-82
2022/08/02 10:57:00;;;;;;;;;3.00;3.00;;;;;29.05;37.66;101484.53;6125388;23;45365;-82
2022/08/02 10:59:34;;;;;;;;;2.67;2.67;;;;;29.32;37.89;101497.13;6125267;23;45670;-82
2022/08/02 11:02:05;;;;;;;;;2.00;2.00;;;;;29.41;36.93;101496.47;6147450;23;45592;-82
2022/08/02 11:04:52;;;;;;;;;4.00;4.00;;;;;29.55;37.13;101480.06;6173129;23;47132;-80
2022/08/02 11:07:20;;;;;;;;;3.33;2.67;;;;;29.64;36.21;101484.00;6124828;23;45375;-82
2022/08/02 11:09:49;;;;;;;;;3.00;3.00;;;;;29.75;36.72;101480.50;6125446;23;45423;-83
2022/08/02 11:12:20;;;;;;;;;3.33;3.33;;;;;29.82;36.30;101473.66;6126594;23;45500;-82
2022/08/02 11:15:04;;;;;;;;;6.00;5.00;;;;;29.96;36.55;101475.34;6175121;23;47057;-82
2022/08/02 11:17:56;;;;;;;;;3.00;3.00;;;;;30.10;35.73;101467.91;6149854;23;45215;-82
2022/08/02 11:20:23;;;;;;;;;4.00;4.00;;;;;30.25;36.21;101467.78;6150285;23;45254;-82
2022/08/02 11:22:51;;;;;;;;;1.33;1.33;;;;;30.33;34.94;101468.91;6126460;23;45381;-82
2022/08/02 11:25:23;;;;;;;;;2.67;2.00;;;;;30.41;34.53;101468.34;6126839;23;45215;-83
2022/08/02 11:28:07;;;;;;;;;1.67;1.33;;;;;30.38;34.29;101465.00;6127254;23;45396;-82
2022/08/02 11:30:33;;;;;;;;;3.00;3.00;;;;;30.38;34.03;101463.13;6127293;23;45286;-82
2022/08/02 11:32:59;;;;;;;;;4.00;4.00;;;;;30.39;34.14;101470.28;6126662;23;45368;-82
2022/08/02 11:35:40;;;;;;;;;3.00;3.00;;;;;30.52;34.59;101462.09;6174682;23;47372;-80
2022/08/02 11:38:18;;;;;;;;;1.00;1.00;;;;;30.66;34.26;101450.16;6174945;23;45255;-80
2022/08/02 11:40:45;;;;;;;;;2.67;2.67;;;;;30.82;34.30;101450.75;6173859;23;45384;-80
2022/08/02 11:43:21;;;;;;;;;2.00;2.00;;;;;31.04;33.99;101454.50;6126822;23;45486;-80
2022/08/02 11:45:51;;;;;;;;;3.00;2.33;;;;;31.19;33.69;101458.69;6127175;23;45328;-81
2022/08/02 11:48:40;;;;;;;;;2.00;2.00;;;;;31.27;33.32;101452.66;6127094;23;45109;-80
2022/08/02 11:51:10;;;;;;;;;2.67;2.67;;;;;31.28;33.38;101452.53;6126855;23;45416;-81
2022/08/02 11:53:50;;;;;;;;;2.00;2.00;;;;;31.18;33.18;101436.06;6126446;23;45370;-80
2022/08/02 11:56:18;;;;;;;;;1.00;1.00;;;;;31.29;32.82;101442.50;6126991;23;45444;-80
2022/08/02 11:59:06;;;;;;;;;3.00;3.00;;;;;31.54;32.81;101445.03;6174966;23;45235;-81
2022/08/02 12:01:37;;;;;;;;;3.67;3.67;;;;;31.68;32.39;101445.72;6126885;23;45205;-80
2022/08/02 12:04:04;;;;;;;;;1.00;1.00;;;;;31.64;32.07;101436.97;6127063;23;45135;-80
2022/08/02 12:06:30;;;;;;;;;3.00;2.33;;;;;31.67;31.99;101438.56;6149320;23;47702;-80
2022/08/02 12:09:12;;;;;;;;;1.67;1.00;;;;;31.72;32.20;101437.19;6124820;23;45198;-81
2022/08/02 12:11:41;;;;;;;;;1.00;1.00;;;;;31.90;31.82;101434.81;6175280;23;45204;-81
2022/08/02 12:14:06;;;;;;;;;2.00;2.00;;;;;32.05;31.99;101435.41;6174846;23;45320;-80
2022/08/02 12:19:26;;;;;;;;;2.00;1.33;;;;;32.25;31.31;101429.16;6127022;23;45384;-81
2022/08/02 12:22:12;;;;;;;;;2.00;2.00;;;;;32.40;31.24;101427.00;6125518;23;45267;-81
2022/08/02 12:24:39;;;;;;;;;1.33;1.00;;;;;32.46;30.95;101420.16;6125041;23;45477;-81
2022/08/02 12:27:05;;;;;;;;;2.00;2.00;;;;;32.57;30.76;101422.84;6149376;23;46359;-81
2022/08/02 12:29:39;;;;;;;;;2.00;2.00;;;;;32.66;30.39;101422.03;6127138;23;45352;-81
2022/08/02 12:32:09;;;;;;;;;1.00;1.00;;;;;32.83;30.62;101419.75;6175258;23;45406;-81
2022/08/02 12:34:35;;;;;;;;;2.00;2.00;;;;;32.98;30.17;101412.91;6149906;23;45333;-81
2022/08/02 12:37:09;;;;;;;;;1.67;1.67;;;;;33.13;30.57;101406.13;6149433;23;46872;-81
2022/08/02 12:39:45;;;;;;;;;1.67;1.67;;;;;33.27;29.99;101414.97;6127059;23;45111;-81
2022/08/02 12:42:13;;;;;;;;;3.00;2.00;;;;;33.29;29.81;101421.16;6126350;23;45256;-81
2022/08/02 12:44:53;;;;;;;;;0.00;0.00;;;;;33.22;29.30;101412.63;6126807;23;45390;-81
2022/08/02 12:47:22;;;;;;;;;0.67;0.67;;;;;33.26;29.66;101410.53;6150068;23;47045;-81
2022/08/02 12:50:19;;;;;;;;;2.33;1.33;;;;;33.28;30.03;101423.03;6124511;23;45547;-80
2022/08/02 12:52:49;;;;;;;;;2.00;2.00;;;;;33.28;29.56;101397.56;6126196;23;45379;-80
2022/08/02 12:55:25;;;;;;;;;3.00;3.00;;;;;33.49;30.08;101406.56;6149798;23;45196;-81
2022/08/02 12:57:57;;;;;;;;;1.00;1.00;;;;;33.53;29.43;101394.41;6126890;23;45218;-81
2022/08/02 13:00:32;;;;;;;;;0.00;0.00;;;;;33.58;28.91;101396.72;6174408;23;45226;-81
2022/08/02 13:02:58;;;;;;;;;3.00;2.00;;;;;33.63;29.25;101404.47;6174679;23;45228;-81
2022/08/02 13:05:27;;;;;;;;;2.33;2.33;;;;;33.56;29.25;101382.34;6149834;23;45403;-81
2022/08/02 13:07:55;;;;;;;;;2.00;2.00;;;;;33.53;28.88;101388.03;6174100;23;47028;-81
2022/08/02 13:10:22;;;;;;;;;2.00;2.00;;;;;33.44;29.10;101386.13;6127019;23;45278;-81
2022/08/02 13:12:48;;;;;;;;;1.00;1.00;;;;;33.42;29.29;101375.38;6149521;23;45214;-81
2022/08/02 13:15:14;;;;;;;;;1.00;0.00;;;;;33.45;29.25;101377.81;6126920;23;45395;-81
2022/08/02 13:17:39;;;;;;;;;1.00;1.00;;;;;33.57;29.13;101379.47;6149450;23;47839;-82
2022/08/02 13:20:06;;;;;;;;;1.00;1.00;;;;;33.64;28.77;101366.09;6127064;23;45243;-82
2022/08/02 13:22:34;;;;;;;;;0.67;0.67;;;;;33.73;29.00;101359.78;6174311;23;45238;-81
2022/08/02 13:25:00;;;;;;;;;3.33;2.33;;;;;33.77;29.07;101366.72;6149912;23;45552;-82
2022/08/02 13:27:27;;;;;;;;;0.00;0.00;;;;;33.79;28.81;101361.13;6149651;23;47003;-82
2022/08/02 13:29:54;;;;;;;;;1.33;1.33;;;;;33.89;28.63;101361.09;6175013;23;45213;-82
2022/08/02 13:32:20;;;;;;;;;2.00;1.33;;;;;33.83;28.70;101357.06;6126594;23;45195;-81
2022/08/02 13:34:46;;;;;;;;;1.00;1.00;;;;;33.85;28.57;101359.69;6174716;23;45186;-81
2022/08/02 13:37:12;;;;;;;;;1.00;1.00;;;;;33.88;28.56;101353.94;6174073;23;45839;-81
2022/08/02 13:39:38;;;;;;;;;0.67;0.67;;;;;33.91;28.56;101357.22;6174778;23;45566;-81
2022/08/02 13:42:03;;;;;;;;;0.67;0.67;;;;;33.97;28.25;101353.91;6148752;23;45387;-81
2022/08/02 13:44:29;;;;;;;;;1.67;1.67;;;;;34.03;28.35;101345.16;6127727;23;45234;-85
2022/08/02 13:46:55;;;;;;;;;1.00;1.00;;;;;34.23;28.15;101348.75;6175334;23;47925;-84
2022/08/02 13:49:21;;;;;;;;;2.67;2.67;;;;;34.42;28.49;101341.53;6175139;23;45416;-84
2022/08/02 13:51:47;;;;;;;;;0.67;0.67;;;;;34.55;28.31;101342.09;6150254;23;45367;-83
2022/08/02 13:54:19;;;;;;;;;1.33;1.33;;;;;34.63;28.06;101341.41;6125933;23;45302;-84
2022/08/02 13:56:44;;;;;;;;;1.00;1.00;;;;;34.64;27.66;101335.78;6149413;23;46256;-82
2022/08/02 13:59:10;;;;;;;;;0.33;0.33;;;;;34.70;27.66;101334.34;6173876;23;45183;-83
2022/08/02 14:01:35;;;;;;;;;4.33;2.67;;;;;34.67;27.65;101332.75;6126562;23;45441;-82
2022/08/02 14:04:01;;;;;;;;;2.00;2.00;;;;;34.58;27.63;101330.88;6149002;23;45283;-81
2022/08/02 14:06:26;;;;;;;;;1.33;1.33;;;;;34.46;27.52;101332.06;6147475;23;47026;-81
2022/08/02 14:08:52;;;;;;;;;1.67;1.67;;;;;34.37;27.38;101320.09;6126562;23;45198;-81
2022/08/02 14:11:17;;;;;;;;;1.33;1.33;;;;;34.31;28.23;101323.44;6126381;23;45709;-80
2022/08/02 14:13:45;;;;;;;;;1.00;0.33;;;;;34.35;27.30;101321.25;6173639;23;45452;-81
2022/08/02 14:16:11;;;;;;;;;1.00;0.67;;;;;34.35;27.80;101308.47;6173742;23;47606;-81
2022/08/02 14:18:36;;;;;;;;;0.67;0.67;;;;;34.40;27.51;101306.16;6126025;23;45190;-81
2022/08/02 14:21:02;;;;;;;;;2.00;2.00;;;;;34.42;27.93;101300.53;6126286;23;45290;-81
2022/08/02 14:23:29;;;;;;;;;1.33;1.33;;;;;34.39;27.68;101303.56;6125647;23;45212;-81
2022/08/02 14:25:55;;;;;;;;;1.33;1.33;;;;;34.37;27.36;101300.97;6126076;23;45996;-80
2022/08/02 14:28:21;;;;;;;;;0.67;0.67;;;;;34.37;27.30;101300.97;6123799;23;45262;-80
2022/08/02 14:30:46;;;;;;;;;1.67;1.67;;;;;34.24;27.74;101298.56;6125987;23;45361;-80
2022/08/02 14:33:11;;;;;;;;;1.67;0.67;;;;;34.21;27.78;101297.97;6123537;23;45317;-80
2022/08/02 14:35:37;;;;;;;;;0.67;0.67;;;;;34.20;27.56;101280.72;6125984;23;45393;-80
2022/08/02 14:38:02;;;;;;;;;0.00;0.00;;;;;34.17;27.43;101291.09;6125743;23;45195;-80
2022/08/02 14:40:28;;;;;;;;;2.67;1.67;;;;;34.10;27.65;101289.94;6172872;23;45230;-80
2022/08/02 14:42:53;;;;;;;;;1.33;1.33;;;;;34.03;27.76;101284.19;6173701;23;45555;-80
2022/08/02 14:45:21;;;;;;;;;0.00;0.00;;;;;34.04;27.55;101284.03;6126581;23;45908;-80
2022/08/02 14:47:52;;;;;;;;;0.33;0.33;;;;;34.09;28.17;101277.28;6150400;23;45380;-79
2022/08/02 14:50:17;;;;;;;;;2.33;0.67;;;;;34.11;27.53;101284.34;6174759;23;45659;-80
2022/08/02 14:52:48;;;;;;;;;0.67;0.67;;;;;34.10;27.97;101279.00;6174767;23;45234;-79
2022/08/02 14:55:14;;;;;;;;;0.00;0.00;;;;;34.13;27.72;101276.84;6127020;23;46308;-80
2022/08/02 14:57:45;;;;;;;;;1.00;0.67;;;;;34.18;27.38;101276.41;6126476;23;45341;-83
2022/08/02 15:00:12;;;;;;;;;2.33;2.33;;;;;34.22;27.62;101280.59;6143898;23;45170;-80
2022/08/02 15:02:46;;;;;;;;;0.33;0.00;;;;;34.14;27.74;101264.91;6142753;23;45021;-85
2022/08/02 15:05:16;;;;;;;;;0.67;0.67;;;;;34.06;27.67;101264.78;6193463;23;47589;-82
2022/08/02 15:07:45;;;;;;;;;2.00;1.00;;;;;34.06;27.79;101272.13;6192473;23;44912;-83
2022/08/02 15:10:16;;;;;;;;;2.00;2.00;;;;;33.96;27.20;101270.22;6192453;23;44738;-82
2022/08/02 15:13:01;;;;;;;;;1.00;1.00;;;;;33.90;27.29;101253.56;6142732;23;45360;-82
2022/08/02 15:15:28;;;;;;;;;0.00;0.00;;;;;33.92;27.70;101268.81;6143813;23;46931;-82
2022/08/02 15:18:02;;;;;;;;;0.00;0.00;;;;;33.87;27.70;101253.81;6194539;23;45679;-83
2022/08/02 15:24:35;;;;;;;;;1.67;1.67;;;;;34.08;28.15;101261.88;6082562;23;45322;-82
2022/08/02 15:27:18;;;;;;;;;0.00;0.00;;;;;34.12;27.57;101253.25;6144429;23;46018;-82
2022/08/02 15:29:47;;;;;;;;;0.00;0.00;;;;;34.29;27.41;101257.09;6192800;23;44714;-82
2022/08/02 15:32:18;;;;;;;;;1.00;1.00;;;;;34.34;27.42;101243.00;6193156;23;45392;-82
2022/08/02 15:34:51;;;;;;;;;0.67;0.67;;;;;34.55;27.31;101253.72;6193684;23;45705;-82
2022/08/02 15:37:18;;;;;;;;;0.00;0.00;;;;;34.62;26.75;101247.53;6193467;23;45485;-81
2022/08/02 15:39:46;;;;;;;;;1.67;0.33;;;;;34.71;26.97;101242.16;6167743;23;45343;-81
2022/08/02 15:42:12;;;;;;;;;0.00;0.00;;;;;34.82;26.74;101245.56;6168053;23;44861;-81
2022/08/02 15:44:37;;;;;;;;;0.00;0.00;;;;;34.85;26.77;101242.50;6193030;23;45405;-81